Branson, Missouri
Current Conditions -  °F | °C
As of 5:15 AM on Wednesday 28 Jan 2015 (Local Time) from KBBG Reporting Station
Few Clouds Few Clouds  
Wind Chill: 30°   Ceiling: Unl
Heat Index: 37°   Visibility: 10mi
Dew Point: 32°   Wind: 12mph
Humidity: 81%   Direction: 120°ESE
Pressure: 30.12"   Gusts: 16mph
Location:  36.65°N, 93.25°W
Report Text: KBBG 281115Z AUTO 12010G14KT 10SM FEW034 03/00 A3012 RMK AO2
Loading
Personal Weather Stations






























Interactive Weather Map New forecast layout! Learn more

10-Day Weather Forecast

Advertisements
Track Severe Weather on mobile